»·PEaware :: AAL3051 KPHX-KPSP

AAL3051 :: KPHX-KPSP

FLIGHT INFORMATION

Flight Status: Arrived
Operator:
American Airlines
More flights by this operator :: More flights under this callsign
Pilot: Jamie M. (16133)
Aircraft: DEHAVILLAND DASH 8 400
(DH8D)
More flights by this aircraft type
Origin: KPHX Phoenix Sky Harbor Intl
United States
Destination: KPSP Palm Springs Intl
United States
More flights between these airports :: More routes between these airports
Route: BXK4 BLH SBONO1
File this flight plan on PilotEdge
Remarks:
Altitude:
(Current/Filed)
14,000ft
Speed:
(Current/Filed)
317kts
Departed: 20-Apr-18 03:25 PM
Arrived: 20-Apr-18 04:23 PM
Distance/Time
Traveled:
226nm/0:58
Distance/Time
To Go:
Arrived

Flight Plot

Page will automatically refresh every two minutes.


Map Options




Map Legend


Flown Route
Filed Route
Departure Airport
Arrival Airport
Navaid (VOR, NDB)
Fix

Horizontal Profiles

Position Reports

Time Latitude Longitude Heading Altitude Ground
Speed
20-Apr-18 14:37 33.434045 -111.996091 293 1142ft 0kts
20-Apr-18 14:38 33.434045 -111.996091 293 1142ft 0kts
20-Apr-18 14:39 33.434045 -111.996091 293 1142ft 0kts
20-Apr-18 14:40 33.434045 -111.996091 293 1142ft 0kts
20-Apr-18 14:41 33.434045 -111.996091 293 1142ft 0kts
20-Apr-18 14:42 33.434045 -111.996091 293 1142ft 0kts
20-Apr-18 14:43 33.434045 -111.996091 293 1142ft 0kts
20-Apr-18 14:44 33.434045 -111.996091 293 1142ft 0kts
20-Apr-18 14:45 33.434045 -111.996091 293 1142ft 0kts
20-Apr-18 14:46 33.434045 -111.996091 293 1142ft 0kts
20-Apr-18 14:47 33.434045 -111.996091 293 1142ft 0kts
20-Apr-18 14:48 33.434045 -111.996091 293 1142ft 0kts
20-Apr-18 14:49 33.434045 -111.996091 293 1142ft 0kts
20-Apr-18 14:50 33.434045 -111.996091 293 1142ft 0kts
20-Apr-18 14:51 33.434045 -111.996091 293 1142ft 0kts
20-Apr-18 14:52 33.434045 -111.996091 293 1142ft 0kts
20-Apr-18 14:53 33.434045 -111.996091 293 1142ft 0kts
20-Apr-18 14:54 33.434045 -111.996091 293 1142ft 0kts
20-Apr-18 14:55 33.434045 -111.996091 293 1142ft 0kts
20-Apr-18 14:56 33.434045 -111.996091 293 1142ft 0kts
20-Apr-18 14:57 33.434045 -111.996091 293 1142ft 0kts
20-Apr-18 14:58 33.434045 -111.996091 293 1142ft 0kts
20-Apr-18 14:59 33.434045 -111.996091 293 1142ft 0kts
20-Apr-18 15:00 33.434045 -111.996091 293 1142ft 0kts
20-Apr-18 15:01 33.434045 -111.996091 293 1142ft 0kts
20-Apr-18 15:02 33.434045 -111.996091 293 1142ft 0kts
20-Apr-18 15:03 33.434045 -111.996091 293 1142ft 0kts
20-Apr-18 15:04 33.434045 -111.996091 293 1142ft 0kts
20-Apr-18 15:05 33.434045 -111.996091 293 1142ft 0kts
20-Apr-18 15:06 33.434045 -111.996091 293 1142ft 0kts
20-Apr-18 15:07 33.434045 -111.996091 293 1142ft 0kts
20-Apr-18 15:08 33.434045 -111.996091 293 1142ft 0kts
20-Apr-18 15:09 33.434045 -111.996091 293 1142ft 0kts
20-Apr-18 15:10 33.434045 -111.996091 293 1142ft 0kts
20-Apr-18 15:11 33.434045 -111.996091 293 1142ft 0kts
20-Apr-18 15:12 33.433912 -111.995727 293 1142ft 2kts
20-Apr-18 15:13 33.433683 -111.995105 293 1142ft 0kts
20-Apr-18 15:14 33.433682 -111.995104 293 1142ft 0kts
20-Apr-18 15:15 33.433682 -111.995104 293 1142ft 0kts
20-Apr-18 15:16 33.433682 -111.995104 293 1142ft 0kts
20-Apr-18 15:17 33.433682 -111.995104 293 1142ft 0kts
20-Apr-18 15:18 33.433643 -111.995471 203 1142ft 3kts
20-Apr-18 15:19 33.432146 -111.994483 87 1142ft 15kts
20-Apr-18 15:20 33.431998 -111.993690 150 1142ft 0kts
20-Apr-18 15:21 33.431998 -111.993690 150 1142ft 0kts
20-Apr-18 15:22 33.431998 -111.993690 150 1142ft 0kts
20-Apr-18 15:23 33.431965 -111.993668 150 1142ft 3kts
20-Apr-18 15:24 33.431010 -112.001841 270 1143ft 104kts
20-Apr-18 15:25 33.427315 -112.043434 249 3090ft 132kts
20-Apr-18 15:26 33.415355 -112.090626 251 5255ft 154kts
20-Apr-18 15:27 33.400940 -112.145816 251 7245ft 188kts
20-Apr-18 15:28 33.384030 -112.208170 251 9603ft 198kts
20-Apr-18 15:29 33.386735 -112.270321 291 12035ft 188kts
20-Apr-18 15:30 33.402885 -112.330657 291 13914ft 205kts
20-Apr-18 15:31 33.423198 -112.404262 290 14008ft 254kts
20-Apr-18 15:32 33.447017 -112.488935 290 13996ft 280kts
20-Apr-18 15:33 33.459317 -112.581698 270 13996ft 296kts
20-Apr-18 15:34 33.456904 -112.680633 273 13990ft 299kts
20-Apr-18 15:35 33.454518 -112.778820 272 14000ft 298kts
20-Apr-18 15:36 33.450137 -112.877925 272 14000ft 301kts
20-Apr-18 15:37 33.451402 -112.977345 281 13997ft 297kts
20-Apr-18 15:38 33.460854 -113.073482 279 14002ft 290kts
20-Apr-18 15:39 33.470429 -113.168703 279 14003ft 286kts
20-Apr-18 15:40 33.476578 -113.263860 277 13998ft 286kts
20-Apr-18 15:41 33.481856 -113.358941 277 14002ft 286kts
20-Apr-18 15:42 33.487388 -113.454682 278 13997ft 289kts
20-Apr-18 15:43 33.493094 -113.550615 278 13996ft 290kts
20-Apr-18 15:44 33.498891 -113.646809 278 13996ft 292kts
20-Apr-18 15:45 33.504791 -113.743170 278 14001ft 290kts
20-Apr-18 15:46 33.510908 -113.839953 278 13994ft 293kts
20-Apr-18 15:47 33.517783 -113.936790 279 13993ft 294kts
20-Apr-18 15:48 33.525639 -114.033970 279 13996ft 292kts
20-Apr-18 15:49 33.533416 -114.130473 279 13995ft 294kts
20-Apr-18 15:50 33.543449 -114.227612 281 13992ft 294kts
20-Apr-18 15:51 33.554588 -114.324516 281 13990ft 294kts
20-Apr-18 15:52 33.565726 -114.421498 281 13985ft 295kts
20-Apr-18 15:53 33.577128 -114.518951 281 13982ft 294kts
20-Apr-18 15:54 33.588371 -114.616170 281 13982ft 295kts
20-Apr-18 15:55 33.599386 -114.713254 282 13983ft 292kts
20-Apr-18 15:56 33.611174 -114.808844 287 13982ft 289kts
20-Apr-18 15:57 33.633688 -114.900968 290 13979ft 289kts
20-Apr-18 15:58 33.660011 -114.991209 293 13984ft 288kts
20-Apr-18 15:59 33.687978 -115.080290 294 13990ft 285kts
20-Apr-18 16:00 33.716045 -115.169674 294 13989ft 287kts
20-Apr-18 16:01 33.744370 -115.259789 294 13993ft 288kts
20-Apr-18 16:02 33.772305 -115.349853 294 13978ft 289kts
20-Apr-18 16:03 33.800191 -115.440301 293 13981ft 288kts
20-Apr-18 16:04 33.827653 -115.529776 294 13990ft 285kts
20-Apr-18 16:05 33.854891 -115.619309 293 13966ft 285kts
20-Apr-18 16:06 33.882101 -115.707493 294 12973ft 287kts
20-Apr-18 16:07 33.907185 -115.797793 275 11574ft 291kts
20-Apr-18 16:08 33.894092 -115.893593 264 10156ft 281kts
20-Apr-18 16:09 33.873286 -115.975427 228 9678ft 263kts
20-Apr-18 16:10 33.816939 -116.028691 221 8722ft 260kts
20-Apr-18 16:11 33.763730 -116.078207 222 7549ft 223kts
20-Apr-18 16:12 33.719432 -116.118414 222 6316ft 190kts
20-Apr-18 16:13 33.679396 -116.162570 245 5028ft 191kts
20-Apr-18 16:14 33.674513 -116.215176 276 4547ft 159kts
20-Apr-18 16:15 33.685160 -116.270580 313 3772ft 187kts
20-Apr-18 16:16 33.711576 -116.320753 299 3037ft 196kts
20-Apr-18 16:17 33.730004 -116.371550 291 2446ft 136kts
20-Apr-18 16:18 33.743825 -116.409082 294 1906ft 116kts
20-Apr-18 16:19 33.760411 -116.445285 307 1899ft 131kts
20-Apr-18 16:20 33.790498 -116.472799 317 1125ft 132kts
20-Apr-18 16:21 33.819395 -116.498495 317 556ft 126kts
20-Apr-18 16:22 33.833140 -116.511712 230 485ft 12kts
20-Apr-18 16:23 33.832981 -116.511887 209 484ft 0kts
20-Apr-18 16:24 33.832742 -116.512036 203 485ft 8kts
20-Apr-18 16:25 33.829810 -116.509927 141 485ft 12kts
20-Apr-18 16:26 33.827056 -116.507394 144 485ft 14kts
20-Apr-18 16:27 33.824143 -116.505668 143 485ft 13kts
20-Apr-18 16:28 33.821713 -116.506107 195 485ft 11kts
20-Apr-18 16:29 33.821022 -116.507042 314 484ft 0kts
20-Apr-18 16:30 33.821022 -116.507042 314 484ft 0kts
20-Apr-18 16:31 33.821022 -116.507042 314 484ft 0kts
20-Apr-18 16:32 33.821022 -116.507042 314 484ft 0kts
20-Apr-18 16:33 33.821022 -116.507042 314 484ft 0kts
20-Apr-18 16:34 33.821022 -116.507042 314 484ft 0kts
20-Apr-18 16:35 33.821022 -116.507042 314 484ft 0kts

Navigation Log

Ident Type
1. KPHX Airport
2. BXK Navaid
3. BXK Navaid
4. Navaid
5. BLH Navaid
6. BLH Navaid
7. DECAS Fix
8. UBABE Fix
9. CLOWD Fix
10. SBONO Fix
11. KPSP Airport